< < Back
Terminal Aerodrome Forecast


Current Version              Previous Versions:   1  2  3  4  5  6  7  8  9  

Terminal Aerodrome Forecast

822
FTUS44 KBMX 220500
TAFANB
TAF
KANB 220534Z 2206/2306 00000KT P6SM SKC
     FM221500 30005KT P6SM SCT050=

Latest METAR

543
SAUS70 KWBC 220800 RRH
MTRANB
METAR KANB 220753Z AUTO 00000KT 10SM CLR 23/22 A3009 RMK AO2 SLP181
T02280217


USA.gov is the U.S. government's official web portal to all federal, state and local government web resources and services.